createdAt,value
2023-01-19T00:01:36.323Z,-0.01
2023-01-19T00:04:04.846Z,-0.32
2023-01-19T00:06:33.960Z,-0.13
2023-01-19T00:09:02.475Z,-0.24
2023-01-19T00:11:30.960Z,-0.09
2023-01-19T00:13:59.375Z,-0.02
2023-01-19T00:16:29.205Z,-0.21
2023-01-19T00:18:57.504Z,0.06
2023-01-19T00:21:25.818Z,0.10
2023-01-19T00:23:54.296Z,0.08
2023-01-19T00:26:23.324Z,0.37
2023-01-19T00:28:52.990Z,0.25
2023-01-19T00:31:21.828Z,0.50
2023-01-19T00:33:52.919Z,0.49
2023-01-19T00:36:21.649Z,0.26
2023-01-19T00:38:49.983Z,0.45
2023-01-19T00:41:18.824Z,0.47
2023-01-19T00:43:46.365Z,0.66
2023-01-19T00:46:14.748Z,0.47
2023-01-19T00:48:43.236Z,0.65
2023-01-19T00:51:13.338Z,0.43
2023-01-19T00:53:41.643Z,0.40
2023-01-19T00:56:10.097Z,0.21
2023-01-19T00:58:38.421Z,0.43
2023-01-19T01:01:07.026Z,0.48
2023-01-19T01:03:35.690Z,0.16
2023-01-19T01:06:04.372Z,0.05
2023-01-19T01:08:34.325Z,0.40
2023-01-19T01:11:03.413Z,0.16
2023-01-19T01:13:32.227Z,0.14
2023-01-19T01:16:01.071Z,-0.15
2023-01-19T01:18:29.412Z,0.01
2023-01-19T01:21:02.819Z,-0.23
2023-01-19T01:23:31.422Z,-0.16
2023-01-19T01:26:02.202Z,-0.18
2023-01-19T01:28:30.746Z,-0.03
2023-01-19T01:30:59.532Z,0.34
2023-01-19T01:33:40.847Z,0.08
2023-01-19T01:36:11.444Z,0.39
2023-01-19T01:38:40.293Z,0.39
2023-01-19T01:41:10.699Z,0.32
2023-01-19T01:43:49.279Z,0.53
2023-01-19T01:46:20.086Z,0.50
2023-01-19T01:48:56.037Z,0.50
2023-01-19T01:51:30.412Z,0.48
2023-01-19T01:54:13.336Z,0.30
2023-01-19T01:56:46.618Z,0.30
2023-01-19T01:59:25.783Z,0.34
2023-01-19T02:02:13.943Z,0.21
2023-01-19T02:04:48.763Z,0.33
2023-01-19T02:07:42.786Z,0.19
2023-01-19T02:10:29.296Z,0.20
2023-01-19T02:13:16.893Z,0.19
2023-01-19T02:15:45.765Z,0.27
2023-01-19T02:18:14.479Z,0.59
2023-01-19T02:20:52.299Z,0.46
2023-01-19T02:23:34.582Z,0.20
2023-01-19T02:26:04.159Z,0.48
2023-01-19T02:28:33.163Z,0.62
2023-01-19T02:31:01.584Z,0.47
2023-01-19T02:33:30.334Z,0.37
2023-01-19T02:35:59.040Z,0.25
2023-01-19T02:38:31.600Z,0.42
2023-01-19T02:41:02.734Z,0.37
2023-01-19T02:43:32.379Z,0.25
2023-01-19T02:46:01.077Z,0.34
2023-01-19T02:48:29.712Z,0.37
2023-01-19T02:51:04.451Z,0.34
2023-01-19T02:54:05.112Z,0.25
2023-01-19T02:57:12.778Z,0.07
2023-01-19T02:59:58.547Z,-0.71
2023-01-19T03:02:37.188Z,-0.32
2023-01-19T03:05:27.403Z,-0.68
2023-01-19T03:08:08.925Z,-0.86
2023-01-19T03:10:49.225Z,-1.13
2023-01-19T03:13:28.805Z,-1.11
2023-01-19T03:16:01.913Z,-1.08
2023-01-19T03:18:35.255Z,-1.63
2023-01-19T03:21:08.547Z,-1.27
2023-01-19T03:23:39.795Z,-1.50
2023-01-19T03:26:14.207Z,-1.68
2023-01-19T03:28:45.348Z,-1.45
2023-01-19T03:31:21.095Z,-1.29
2023-01-19T03:33:55.472Z,-2.10
2023-01-19T03:36:33.400Z,-1.10
2023-01-19T03:39:04.535Z,-1.26
2023-01-19T03:41:37.631Z,-1.15
2023-01-19T03:44:08.778Z,-1.45
2023-01-19T03:46:37.461Z,-1.41
2023-01-19T03:49:06.150Z,-1.73
2023-01-19T03:51:39.232Z,-1.49
2023-01-19T03:54:10.749Z,-1.45
2023-01-19T03:56:40.988Z,-1.19
2023-01-19T03:59:09.441Z,-1.10
2023-01-19T04:01:37.948Z,-2.10
2023-01-19T04:04:06.870Z,-0.93
2023-01-19T04:06:35.927Z,-1.56
2023-01-19T04:09:04.513Z,-1.48
2023-01-19T04:11:36.037Z,-1.33
2023-01-19T04:14:06.351Z,-1.61
2023-01-19T04:16:34.875Z,-1.40
2023-01-19T04:19:03.552Z,-1.72
2023-01-19T04:21:32.136Z,-2.71
2023-01-19T04:24:01.409Z,-0.96
2023-01-19T04:26:29.979Z,-0.87
2023-01-19T04:28:59.887Z,-0.63
2023-01-19T04:31:29.938Z,-0.49
2023-01-19T04:33:58.633Z,-0.96
2023-01-19T04:36:27.692Z,-1.32
2023-01-19T04:38:56.359Z,-2.10
2023-01-19T04:41:24.977Z,0.02
2023-01-19T04:43:53.621Z,-1.32
2023-01-19T04:46:22.350Z,-1.01
2023-01-19T04:48:52.645Z,-0.36
2023-01-19T04:51:21.374Z,0.04
2023-01-19T04:53:50.009Z,-0.97
2023-01-19T04:56:19.876Z,-0.98
2023-01-19T04:58:48.452Z,-0.37
2023-01-19T05:01:17.052Z,-1.92
2023-01-19T05:03:46.009Z,-0.96
2023-01-19T05:06:15.886Z,-1.66
2023-01-19T05:08:45.447Z,-1.25
2023-01-19T05:11:14.116Z,-0.34
2023-01-19T05:13:42.621Z,-0.29
2023-01-19T05:16:11.735Z,-0.25
2023-01-19T05:18:40.185Z,-1.74
2023-01-19T05:21:09.034Z,-0.99
2023-01-19T05:23:39.201Z,-0.64
2023-01-19T05:26:09.534Z,-0.42
2023-01-19T05:28:39.139Z,-1.57
2023-01-19T05:31:10.012Z,-1.49
2023-01-19T05:33:38.790Z,-1.54
2023-01-19T05:36:09.538Z,-0.51
2023-01-19T05:38:39.469Z,-0.44
2023-01-19T05:41:08.535Z,-1.24
2023-01-19T05:43:37.226Z,-0.81
2023-01-19T05:46:06.228Z,-0.76
2023-01-19T05:48:34.907Z,-0.67
2023-01-19T05:51:04.987Z,-0.48
2023-01-19T05:53:33.550Z,-1.63
2023-01-19T05:56:05.653Z,-0.71
2023-01-19T05:58:35.704Z,-0.85
2023-01-19T06:01:06.991Z,-0.48
2023-01-19T06:03:43.279Z,-0.47
2023-01-19T06:06:12.523Z,-0.30
2023-01-19T06:08:41.210Z,-0.30
2023-01-19T06:11:11.345Z,-0.18
2023-01-19T06:13:42.101Z,-0.70
2023-01-19T06:16:12.979Z,-1.32
2023-01-19T06:18:41.735Z,-1.39
2023-01-19T06:21:13.817Z,-0.37
2023-01-19T06:23:42.301Z,-0.69
2023-01-19T06:26:12.456Z,-0.31
2023-01-19T06:28:40.856Z,-0.43
2023-01-19T06:31:09.843Z,-1.20
2023-01-19T06:33:38.355Z,-0.41
2023-01-19T06:36:08.854Z,-0.39
2023-01-19T06:38:37.299Z,-0.42
2023-01-19T06:41:06.162Z,-0.45
2023-01-19T06:43:36.068Z,-0.46
2023-01-19T06:46:06.054Z,-0.48
2023-01-19T06:48:34.956Z,-0.92
2023-01-19T06:51:03.776Z,-0.58
2023-01-19T06:53:32.281Z,-0.44
2023-01-19T06:56:02.866Z,-0.86
2023-01-19T06:58:34.928Z,-0.90
2023-01-19T07:01:06.002Z,-0.52
2023-01-19T07:03:35.624Z,-0.60
2023-01-19T07:06:06.720Z,-0.85
2023-01-19T07:08:36.100Z,-0.44
2023-01-19T07:11:25.674Z,-0.50
2023-01-19T07:13:56.936Z,-0.53
2023-01-19T07:16:27.243Z,-0.44
2023-01-19T07:18:55.887Z,-0.30
2023-01-19T07:21:24.657Z,-0.42
2023-01-19T07:23:54.336Z,-0.58
2023-01-19T07:26:25.047Z,-0.43
2023-01-19T07:28:53.868Z,-0.33
2023-01-19T07:31:22.578Z,-0.57
2023-01-19T07:33:52.841Z,-0.33
2023-01-19T07:36:21.467Z,-0.44
2023-01-19T07:38:50.235Z,-0.36
2023-01-19T07:41:18.750Z,-0.09
2023-01-19T07:43:47.412Z,-0.18
2023-01-19T07:46:15.909Z,-0.18
2023-01-19T07:48:44.584Z,-0.25
2023-01-19T07:51:19.058Z,-0.24
2023-01-19T07:53:48.252Z,-0.31
2023-01-19T07:56:17.136Z,-0.32
2023-01-19T07:58:45.631Z,-0.04
2023-01-19T08:01:15.172Z,-0.05
2023-01-19T08:03:43.966Z,-0.13
2023-01-19T08:06:21.866Z,0.03
2023-01-19T08:08:50.687Z,0.04
2023-01-19T08:11:19.075Z,0.04
2023-01-19T08:13:47.492Z,0.09
2023-01-19T08:16:16.256Z,-0.37
2023-01-19T08:18:44.925Z,0.01
2023-01-19T08:21:14.771Z,0.12
2023-01-19T08:23:43.296Z,0.02
2023-01-19T08:26:23.956Z,0.21
2023-01-19T08:28:52.386Z,0.18
2023-01-19T08:31:24.536Z,0.09
2023-01-19T08:33:53.878Z,0.09
2023-01-19T08:36:25.221Z,-0.04
2023-01-19T08:38:53.820Z,0.04
2023-01-19T08:41:22.514Z,-0.02
2023-01-19T08:43:51.247Z,-0.33
2023-01-19T08:46:21.905Z,-0.18
2023-01-19T08:48:50.526Z,-0.47
2023-01-19T08:51:20.091Z,-0.47
2023-01-19T08:53:50.306Z,-0.24
2023-01-19T08:56:20.650Z,-0.28
2023-01-19T08:58:59.533Z,-0.17
2023-01-19T09:01:37.460Z,-0.02
2023-01-19T09:04:06.831Z,-0.09
2023-01-19T09:06:35.307Z,-0.03
2023-01-19T09:09:05.566Z,-0.05
2023-01-19T09:11:35.303Z,0.06
2023-01-19T09:14:05.677Z,0.03
2023-01-19T09:16:34.586Z,0.06
2023-01-19T09:19:03.008Z,-0.06
2023-01-19T09:21:31.549Z,-0.11
2023-01-19T09:24:00.011Z,0.23
2023-01-19T09:26:31.641Z,0.23
2023-01-19T09:29:01.407Z,0.14
2023-01-19T09:31:30.158Z,0.16
2023-01-19T09:33:58.677Z,0.23
2023-01-19T09:36:27.137Z,0.33
2023-01-19T09:38:55.446Z,0.13
2023-01-19T09:41:26.110Z,0.31
2023-01-19T09:43:58.851Z,0.25
2023-01-19T09:46:35.807Z,0.21
2023-01-19T09:49:12.236Z,0.30
2023-01-19T09:51:44.955Z,0.34
2023-01-19T09:54:16.905Z,0.45
2023-01-19T09:56:49.904Z,0.50
2023-01-19T09:59:25.467Z,0.48
2023-01-19T10:02:19.972Z,0.24
2023-01-19T10:04:59.852Z,0.38
2023-01-19T10:07:53.298Z,0.32
2023-01-19T10:10:25.541Z,0.47
2023-01-19T10:13:22.640Z,0.51
2023-01-19T10:16:05.102Z,0.44
2023-01-19T10:18:47.990Z,0.28
2023-01-19T10:21:21.628Z,0.60
2023-01-19T10:23:54.783Z,0.44
2023-01-19T10:26:26.844Z,0.35
2023-01-19T10:29:02.959Z,0.60
2023-01-19T10:31:35.191Z,0.69
2023-01-19T10:34:04.707Z,0.67
2023-01-19T10:36:38.161Z,0.83
2023-01-19T10:39:07.452Z,0.56
2023-01-19T10:41:43.615Z,0.82
2023-01-19T10:44:12.606Z,1.01
2023-01-19T10:46:46.058Z,1.17
2023-01-19T10:49:27.422Z,1.02
2023-01-19T10:51:57.492Z,1.16
2023-01-19T10:54:28.141Z,1.50
2023-01-19T10:57:00.668Z,1.40
2023-01-19T10:59:36.598Z,1.57
2023-01-19T11:02:21.769Z,1.74
2023-01-19T11:04:53.932Z,1.66
2023-01-19T11:07:24.969Z,1.99
2023-01-19T11:10:21.967Z,2.09
2023-01-19T11:13:03.229Z,2.32
2023-01-19T11:15:36.063Z,2.14
2023-01-19T11:18:07.771Z,2.02
2023-01-19T11:20:49.376Z,2.30
2023-01-19T11:23:27.276Z,2.44
2023-01-19T11:26:00.582Z,2.45
2023-01-19T11:28:33.894Z,2.50
2023-01-19T11:31:05.097Z,2.57
2023-01-19T11:33:42.867Z,2.82
2023-01-19T11:36:18.635Z,2.83
2023-01-19T11:38:50.665Z,3.21
2023-01-19T11:41:22.553Z,3.56
2023-01-19T11:43:55.557Z,3.67
2023-01-19T11:46:28.099Z,3.59
2023-01-19T11:49:03.016Z,3.79
2023-01-19T11:51:38.864Z,3.76
2023-01-19T11:54:18.959Z,4.04
2023-01-19T11:56:49.606Z,3.99
2023-01-19T11:59:18.034Z,4.05
2023-01-19T12:01:51.874Z,4.12
2023-01-19T12:04:29.487Z,3.97
2023-01-19T12:07:00.302Z,4.13
2023-01-19T12:09:32.148Z,3.80
2023-01-19T12:12:06.198Z,3.77
2023-01-19T12:14:42.019Z,3.62
2023-01-19T12:17:21.992Z,3.71
2023-01-19T12:19:57.489Z,3.64
2023-01-19T12:22:29.000Z,3.50
2023-01-19T12:25:04.046Z,3.20
2023-01-19T12:27:42.254Z,3.19
2023-01-19T12:30:21.041Z,3.12
2023-01-19T12:32:51.255Z,3.09
2023-01-19T12:35:58.385Z,3.09
2023-01-19T12:38:48.793Z,2.92
2023-01-19T12:41:29.177Z,2.59
2023-01-19T12:44:27.747Z,2.41
2023-01-19T12:47:04.242Z,2.24
2023-01-19T12:49:43.797Z,2.32
2023-01-19T12:52:33.417Z,2.68
2023-01-19T12:55:16.671Z,2.95
2023-01-19T12:57:57.931Z,3.07
2023-01-19T13:00:39.707Z,3.41
2023-01-19T13:03:47.139Z,3.15
2023-01-19T13:06:15.516Z,3.08
2023-01-19T13:09:02.503Z,3.49
2023-01-19T13:11:34.490Z,3.34
2023-01-19T13:14:36.587Z,3.44
2023-01-19T13:17:18.379Z,3.20
2023-01-19T13:19:54.959Z,3.40
2023-01-19T13:23:20.398Z,3.26
2023-01-19T13:26:05.217Z,3.05
2023-01-19T13:28:42.063Z,3.32
2023-01-19T13:31:12.139Z,3.59
2023-01-19T13:33:49.738Z,3.69
2023-01-19T13:36:27.340Z,3.92
2023-01-19T13:38:56.663Z,4.00
2023-01-19T13:41:30.980Z,3.96
2023-01-19T13:44:04.392Z,3.82
2023-01-19T13:46:34.317Z,3.68
2023-01-19T13:49:06.793Z,4.05
2023-01-19T13:51:35.167Z,4.17
2023-01-19T13:54:03.794Z,3.98
2023-01-19T13:56:33.584Z,3.87
2023-01-19T13:59:12.552Z,3.73
2023-01-19T14:01:43.953Z,3.72
2023-01-19T14:04:31.043Z,3.62
2023-01-19T14:07:03.664Z,3.41
2023-01-19T14:09:32.554Z,3.45
2023-01-19T14:12:14.532Z,2.88
2023-01-19T14:14:43.502Z,2.96
2023-01-19T14:17:33.184Z,2.85
2023-01-19T14:20:02.051Z,2.86
2023-01-19T14:22:42.377Z,2.90
2023-01-19T14:25:34.173Z,2.63
2023-01-19T14:28:30.689Z,2.69
2023-01-19T14:31:01.887Z,2.52
2023-01-19T14:33:41.507Z,2.37
2023-01-19T14:36:18.424Z,2.10
2023-01-19T14:38:48.254Z,2.26
2023-01-19T14:41:28.211Z,2.30
2023-01-19T14:44:01.323Z,2.62
2023-01-19T14:46:30.276Z,2.80
2023-01-19T14:49:05.794Z,2.76
2023-01-19T14:51:34.454Z,2.94
2023-01-19T14:54:05.147Z,3.12
2023-01-19T14:56:35.991Z,2.95
2023-01-19T14:59:11.839Z,3.08
2023-01-19T15:01:40.506Z,3.06
2023-01-19T15:04:09.016Z,3.19
2023-01-19T15:06:45.871Z,3.21
2023-01-19T15:09:15.242Z,2.80
2023-01-19T15:11:45.132Z,2.81
2023-01-19T15:14:16.722Z,2.80
2023-01-19T15:16:46.190Z,2.49
2023-01-19T15:19:16.021Z,2.43
2023-01-19T15:21:46.395Z,2.40
2023-01-19T15:24:17.841Z,1.99
2023-01-19T15:26:46.988Z,2.18
2023-01-19T15:29:25.930Z,2.12
2023-01-19T15:31:54.888Z,2.23
2023-01-19T15:34:23.339Z,2.23
2023-01-19T15:36:52.319Z,2.19
2023-01-19T15:39:20.712Z,2.07
2023-01-19T15:41:49.172Z,2.08
2023-01-19T15:44:17.611Z,1.96
2023-01-19T15:46:47.473Z,1.87
2023-01-19T15:49:15.954Z,1.81
2023-01-19T15:51:44.410Z,1.81
2023-01-19T15:54:15.599Z,1.60
2023-01-19T15:56:43.964Z,1.68
2023-01-19T15:59:12.689Z,1.61
2023-01-19T16:01:41.891Z,1.50
2023-01-19T16:04:12.652Z,1.33
2023-01-19T16:06:41.272Z,1.17
2023-01-19T16:09:09.818Z,1.07
2023-01-19T16:11:38.837Z,0.72
2023-01-19T16:14:09.319Z,0.91
2023-01-19T16:16:38.446Z,0.70
2023-01-19T16:19:07.190Z,0.84
2023-01-19T16:21:36.993Z,0.53
2023-01-19T16:24:05.950Z,0.67
2023-01-19T16:26:36.727Z,0.40
2023-01-19T16:29:09.831Z,0.55
2023-01-19T16:31:39.101Z,0.22
2023-01-19T16:34:07.623Z,0.58
2023-01-19T16:36:40.667Z,0.62
2023-01-19T16:39:12.886Z,0.35
2023-01-19T16:41:41.545Z,0.42
2023-01-19T16:44:11.596Z,0.29
2023-01-19T16:46:42.599Z,0.42
2023-01-19T16:49:15.643Z,0.26
2023-01-19T16:51:46.457Z,-0.04
2023-01-19T16:54:16.118Z,-0.24
2023-01-19T16:56:44.658Z,-0.06
2023-01-19T16:59:15.014Z,-0.03
2023-01-19T17:01:45.508Z,-0.09
2023-01-19T17:04:15.541Z,-0.36
2023-01-19T17:06:46.515Z,-0.21
2023-01-19T17:09:15.459Z,-0.60
2023-01-19T17:11:44.564Z,-0.30
2023-01-19T17:14:16.332Z,-0.12
2023-01-19T17:16:45.036Z,-0.13
2023-01-19T17:19:17.760Z,0.09
2023-01-19T17:21:49.066Z,-0.16
2023-01-19T17:24:18.587Z,-0.25
2023-01-19T17:26:48.664Z,-0.22
2023-01-19T17:29:17.948Z,-0.19
2023-01-19T17:31:46.916Z,-0.18
2023-01-19T17:34:15.345Z,-0.08
2023-01-19T17:36:43.781Z,-0.04
2023-01-19T17:39:15.085Z,-0.03
2023-01-19T17:41:43.655Z,-0.14
2023-01-19T17:44:12.098Z,-0.08
2023-01-19T17:46:40.872Z,-0.09
2023-01-19T17:49:09.670Z,-0.23
2023-01-19T17:51:38.566Z,-0.31
2023-01-19T17:54:07.408Z,-0.16
2023-01-19T17:56:38.799Z,-0.15
2023-01-19T17:59:08.168Z,-0.30
2023-01-19T18:01:40.358Z,-0.27
2023-01-19T18:04:10.422Z,-0.30
2023-01-19T18:06:40.239Z,-0.31
2023-01-19T18:09:08.938Z,-0.14
2023-01-19T18:11:38.881Z,-0.06
2023-01-19T18:14:07.315Z,-0.06
2023-01-19T18:16:36.562Z,-0.03
2023-01-19T18:19:05.143Z,-0.01
2023-01-19T18:21:33.513Z,-0.06
2023-01-19T18:24:04.267Z,-0.19
2023-01-19T18:26:34.526Z,-0.44
2023-01-19T18:29:04.581Z,-0.38
2023-01-19T18:31:33.255Z,-0.17
2023-01-19T18:34:01.807Z,-0.17
2023-01-19T18:36:32.044Z,-0.09
2023-01-19T18:39:01.772Z,-0.16
2023-01-19T18:41:30.669Z,-0.13
2023-01-19T18:43:59.910Z,-0.14
2023-01-19T18:46:29.736Z,-0.17
2023-01-19T18:48:58.331Z,-0.43
2023-01-19T18:51:26.805Z,-0.25
2023-01-19T18:53:55.488Z,-0.33
2023-01-19T18:56:24.220Z,-0.33
2023-01-19T18:58:53.370Z,-0.67
2023-01-19T19:01:25.741Z,-0.52
2023-01-19T19:03:56.966Z,-0.72
2023-01-19T19:06:27.546Z,-0.51
2023-01-19T19:08:59.452Z,-0.59
2023-01-19T19:11:28.562Z,-0.55
2023-01-19T19:14:00.761Z,-0.60
2023-01-19T19:16:29.959Z,-0.63
2023-01-19T19:19:00.904Z,-0.61
2023-01-19T19:21:29.374Z,-0.74
2023-01-19T19:23:59.383Z,-0.78
2023-01-19T19:26:29.039Z,-0.83
2023-01-19T19:28:57.718Z,-0.84
2023-01-19T19:31:27.729Z,-0.83
2023-01-19T19:33:57.866Z,-0.70
2023-01-19T19:36:29.687Z,-0.82
2023-01-19T19:39:00.641Z,-0.75
2023-01-19T19:41:32.193Z,-0.96
2023-01-19T19:44:01.331Z,-0.76
2023-01-19T19:46:29.837Z,-1.11
2023-01-19T19:48:58.568Z,-0.87
2023-01-19T19:51:29.810Z,-0.98
2023-01-19T19:54:01.322Z,-0.79
2023-01-19T19:56:31.713Z,-0.83
2023-01-19T19:59:01.401Z,-0.62
2023-01-19T20:01:33.403Z,-0.51
2023-01-19T20:04:08.424Z,-0.57
2023-01-19T20:06:41.197Z,-0.30
2023-01-19T20:09:12.772Z,-0.50
2023-01-19T20:11:42.083Z,-0.61
2023-01-19T20:14:13.323Z,-0.48
2023-01-19T20:16:43.036Z,-0.22
2023-01-19T20:19:11.983Z,-0.65
2023-01-19T20:21:42.866Z,-0.50
2023-01-19T20:24:15.579Z,-0.32
2023-01-19T20:26:47.545Z,-0.28
2023-01-19T20:29:16.100Z,-0.11
2023-01-19T20:31:48.747Z,-0.15
2023-01-19T20:34:20.530Z,-0.18
2023-01-19T20:36:53.154Z,-0.48
2023-01-19T20:39:23.749Z,-0.46
2023-01-19T20:41:52.720Z,-0.66
2023-01-19T20:44:24.229Z,-0.30
2023-01-19T20:46:53.747Z,-0.37
2023-01-19T20:49:22.512Z,-0.06
2023-01-19T20:51:53.395Z,-0.04
2023-01-19T20:54:26.329Z,-0.16
2023-01-19T20:56:55.714Z,-0.20
2023-01-19T20:59:24.710Z,0.09
2023-01-19T21:01:53.639Z,0.06
2023-01-19T21:04:22.422Z,0.10
2023-01-19T21:06:52.323Z,-0.05
2023-01-19T21:09:22.944Z,-0.19
2023-01-19T21:11:51.276Z,-0.32
2023-01-19T21:14:19.681Z,-0.11
2023-01-19T21:16:48.451Z,-0.18
2023-01-19T21:19:17.225Z,-0.11
2023-01-19T21:21:45.762Z,-0.15
2023-01-19T21:24:15.620Z,-0.30
2023-01-19T21:26:44.953Z,-0.34
2023-01-19T21:29:14.094Z,-0.42
2023-01-19T21:31:42.672Z,-0.28
2023-01-19T21:34:11.336Z,-0.21
2023-01-19T21:36:39.777Z,-0.71
2023-01-19T21:39:09.088Z,-0.22
2023-01-19T21:41:40.310Z,-0.16
2023-01-19T21:44:09.239Z,0.04
2023-01-19T21:46:37.641Z,0.11
2023-01-19T21:49:08.539Z,0.02
2023-01-19T21:51:37.905Z,0.25
2023-01-19T21:54:08.009Z,0.17
2023-01-19T21:56:39.019Z,0.36
2023-01-19T21:59:07.749Z,-0.05
2023-01-19T22:01:36.726Z,0.15
2023-01-19T22:04:05.551Z,0.03
2023-01-19T22:06:34.304Z,-0.07
2023-01-19T22:09:03.149Z,0.25
2023-01-19T22:11:31.995Z,0.25
2023-01-19T22:14:01.974Z,0.11
2023-01-19T22:16:31.269Z,-0.29
2023-01-19T22:19:02.598Z,0.02
2023-01-19T22:21:34.010Z,-0.08
2023-01-19T22:24:05.402Z,-0.23
2023-01-19T22:26:37.109Z,-0.32
2023-01-19T22:29:11.021Z,-0.28
2023-01-19T22:31:40.322Z,-0.23
2023-01-19T22:34:10.478Z,-0.27
2023-01-19T22:36:39.747Z,-0.37
2023-01-19T22:39:11.022Z,-0.77
2023-01-19T22:41:42.289Z,-0.96
2023-01-19T22:44:14.570Z,-0.76
2023-01-19T22:46:43.662Z,-1.11
2023-01-19T22:49:14.871Z,-0.86
2023-01-19T22:51:43.631Z,-0.89
2023-01-19T22:54:12.841Z,-0.95
2023-01-19T22:56:42.905Z,-1.20
2023-01-19T22:59:12.868Z,-1.16
2023-01-19T23:01:44.448Z,-1.06
2023-01-19T23:04:15.598Z,-1.02
2023-01-19T23:06:47.016Z,-1.21
2023-01-19T23:09:16.692Z,-1.31
2023-01-19T23:11:50.318Z,-1.32
2023-01-19T23:14:23.029Z,-0.99
2023-01-19T23:16:51.554Z,-1.35
2023-01-19T23:19:20.120Z,-1.16
2023-01-19T23:21:52.323Z,-1.05
2023-01-19T23:24:20.759Z,-1.14
2023-01-19T23:26:50.497Z,-1.50
2023-01-19T23:29:20.697Z,-1.38
2023-01-19T23:31:50.689Z,-1.20
2023-01-19T23:34:19.097Z,-1.16
2023-01-19T23:36:47.501Z,-1.21
2023-01-19T23:39:18.779Z,-1.55
2023-01-19T23:41:47.437Z,-1.25
2023-01-19T23:44:17.143Z,-1.49
2023-01-19T23:46:47.598Z,-1.27
2023-01-19T23:49:17.077Z,-1.17
2023-01-19T23:51:45.565Z,-1.32
2023-01-19T23:54:14.162Z,-1.30
2023-01-19T23:56:43.268Z,-1.28
2023-01-19T23:59:13.959Z,-1.44
